Main page
METAR-TAF:

METAR-TAF

Airports :

Ashgabat, Turkmenistan

Ashgabat International Airport

latitude: 37-59N, longitude: 058-22E, elevation: m

Current weather observation

The report was made 1 hour and 1 minutes ago, at 01:00 UTC
Wind 3 kt from the South/Southwest
Temperature 20°C
Humidity 35%
Pressure 1007 hPa
Visibility 10 km or more

METAR: UTAA 290100Z 20003KT 9999 NSC 20/04 Q1007 NOSIG

Time: 07:01 (02:01 UTC)

Forecast

The report was made 3 hours and 31 minutes ago, at 22:30 UTC
Forecast valid from 29 at 00 UTC to 29 at 24 UTC
Wind 14 kt from the East/Southeast
Visibility: 5000 m
Scattered clouds at a height of 5000 ft
Temporary
from 29 at 00 UTC to 29 at 03 UTC
Wind 12 kt from the South
Temporary
from 29 at 06 UTC to 29 at 14 UTC
Wind 16 kt from the East with gusts up to 26 kt
Visibility: 3000 m
Low drifting dust

TAF: UTAA 282230Z 2900/2924 12014KT 5000 SCT050 530009 TEMPO 2900/2903 18012KT TEMPO 2906/2914 10016G26KT 3000 DRDU

Weather observations and forecasts of more than 4000 airports (METAR and TAF reports).

The available stations are represented by yellow and red dots on the map.

Hover mouse over dot to see the name of the station.

Then click to see weather observations and forecasts.

To change the map : click on the green buttons with a black cross to zoom in, on the green button with a dash to zoom out, or on the green arrows for adjacent maps.


METAR-TAF: